Time;durP1;ratioP1;P1;durP2;ratioP2;P2;SDS_P1;SDS_P2;PMS_P1;PMS_P2;Temp;Humidity;BMP_temperature;BMP_pressure;BME280_temperature;BME280_humidity;BME280_pressure;Samples;Min_cycle;Max_cycle;Signal;HPM_P1;HPM_P2
2021/07/02 00:02:17;;;;;;;3.95;1.45;;;;;;;;;;5014461;28;20045;-54
2021/07/02 00:04:43;;;;;;;3.85;1.33;;;;;;;;;;5013632;28;20041;-54
2021/07/02 00:07:09;;;;;;;3.22;1.27;;;;;;;;;;5014980;28;20037;-56
2021/07/02 00:09:35;;;;;;;3.88;1.30;;;;;;;;;;5011864;28;20034;-56
2021/07/02 00:12:01;;;;;;;3.00;1.17;;;;;;;;;;5013316;28;20052;-56
2021/07/02 00:14:26;;;;;;;5.40;1.25;;;;;;;;;;5013066;28;20045;-56
2021/07/02 00:16:52;;;;;;;5.05;1.48;;;;;;;;;;5013704;28;20045;-56
2021/07/02 00:19:19;;;;;;;2.90;1.20;;;;;;;;;;5014880;28;20049;-54
2021/07/02 00:21:45;;;;;;;3.75;1.60;;;;;;;;;;5016469;28;20041;-55
2021/07/02 00:24:11;;;;;;;4.38;1.30;;;;;;;;;;5017365;28;20046;-55
2021/07/02 00:26:37;;;;;;;3.60;1.42;;;;;;;;;;5013923;28;20041;-56
2021/07/02 00:29:03;;;;;;;4.35;1.55;;;;;;;;;;5013605;28;20441;-56
2021/07/02 00:31:29;;;;;;;7.47;1.55;;;;;;;;;;5016329;28;20853;-54
2021/07/02 00:33:55;;;;;;;5.38;1.20;;;;;;;;;;5016496;28;20107;-55
2021/07/02 00:36:21;;;;;;;5.47;1.55;;;;;;;;;;5017721;28;20045;-54
2021/07/02 00:38:47;;;;;;;4.05;1.30;;;;;;;;;;5018403;28;20036;-57
2021/07/02 00:41:13;;;;;;;6.38;1.85;;;;;;;;;;5017738;28;20037;-57
2021/07/02 00:43:49;;;;;;;3.15;1.10;;;;;;;;;;5016190;28;20065;-56
2021/07/02 00:46:15;;;;;;;5.10;1.40;;;;;;;;;;5037322;28;20041;-56
2021/07/02 00:48:40;;;;;;;11.70;1.75;;;;;;;;;;5016788;28;20365;-56
2021/07/02 00:51:06;;;;;;;6.32;1.50;;;;;;;;;;5015039;28;20048;-55
2021/07/02 00:53:32;;;;;;;4.57;1.60;;;;;;;;;;5014261;28;20596;-56
2021/07/02 00:56:00;;;;;;;5.28;1.50;;;;;;;;;;5014147;28;20069;-56
2021/07/02 00:58:29;;;;;;;5.55;1.52;;;;;;;;;;5014426;28;20044;-55
2021/07/02 01:00:55;;;;;;;17.70;1.73;;;;;;;;;;5014257;28;20054;-56
2021/07/02 01:03:20;;;;;;;3.55;1.15;;;;;;;;;;5014117;28;20072;-55
2021/07/02 01:05:46;;;;;;;3.65;1.45;;;;;;;;;;5015156;28;20045;-53
2021/07/02 01:08:12;;;;;;;3.55;1.20;;;;;;;;;;5015484;28;20110;-55
2021/07/02 01:10:38;;;;;;;3.38;1.40;;;;;;;;;;5013616;28;20049;-55
2021/07/02 01:13:06;;;;;;;4.30;1.80;;;;;;;;;;5013501;28;20395;-56
2021/07/02 01:15:31;;;;;;;3.10;1.33;;;;;;;;;;5011934;28;20034;-56
2021/07/02 01:17:57;;;;;;;3.35;1.20;;;;;;;;;;5014799;28;20045;-54
2021/07/02 01:20:23;;;;;;;4.25;1.38;;;;;;;;;;5013832;28;20045;-54
2021/07/02 01:22:49;;;;;;;6.93;1.50;;;;;;;;;;5016267;28;20930;-52
2021/07/02 01:25:15;;;;;;;5.57;1.40;;;;;;;;;;5015204;28;20549;-53
2021/07/02 01:27:41;;;;;;;6.63;1.50;;;;;;;;;;5012685;28;20056;-54
2021/07/02 01:30:08;;;;;;;4.65;1.65;;;;;;;;;;5014443;28;21544;-55
2021/07/02 01:32:33;;;;;;;5.78;1.40;;;;;;;;;;5014614;28;20132;-56
2021/07/02 01:34:59;;;;;;;4.50;1.75;;;;;;;;;;5014164;28;20516;-56
2021/07/02 01:37:25;;;;;;;4.03;1.40;;;;;;;;;;5015775;28;20062;-55
2021/07/02 01:39:51;;;;;;;7.65;1.60;;;;;;;;;;5014580;28;20072;-56
2021/07/02 01:42:17;;;;;;;9.15;1.83;;;;;;;;;;5007530;28;20104;-56
2021/07/02 01:44:43;;;;;;;4.18;1.45;;;;;;;;;;5012558;28;20044;-56
2021/07/02 01:47:09;;;;;;;5.30;1.33;;;;;;;;;;5007186;28;20129;-56
2021/07/02 01:49:35;;;;;;;10.68;1.85;;;;;;;;;;5008481;28;20048;-57
2021/07/02 01:52:00;;;;;;;5.50;1.65;;;;;;;;;;5012975;28;20038;-56
2021/07/02 01:54:26;;;;;;;11.55;1.88;;;;;;;;;;5013667;28;20049;-56
2021/07/02 01:56:52;;;;;;;4.10;1.40;;;;;;;;;;5012873;28;20060;-55
2021/07/02 01:59:18;;;;;;;5.07;1.50;;;;;;;;;;5013491;28;20068;-56
2021/07/02 02:01:45;;;;;;;4.47;1.48;;;;;;;;;;5014554;28;20126;-56
2021/07/02 02:04:11;;;;;;;12.05;1.85;;;;;;;;;;5012059;28;20042;-54
2021/07/02 02:06:37;;;;;;;9.25;1.70;;;;;;;;;;5010154;28;20170;-55
2021/07/02 02:09:04;;;;;;;4.68;1.48;;;;;;;;;;5014614;28;20053;-57
2021/07/02 02:11:30;;;;;;;8.18;1.42;;;;;;;;;;5012456;28;20595;-53
2021/07/02 02:13:55;;;;;;;9.82;1.95;;;;;;;;;;5012748;28;20038;-53
2021/07/02 02:16:21;;;;;;;5.28;1.67;;;;;;;;;;5011492;28;20168;-57
2021/07/02 02:18:47;;;;;;;7.57;1.50;;;;;;;;;;5013589;28;20045;-56
2021/07/02 02:21:13;;;;;;;8.40;2.03;;;;;;;;;;5013407;28;20061;-56
2021/07/02 02:23:39;;;;;;;7.40;1.48;;;;;;;;;;5009786;28;20069;-55
2021/07/02 02:26:05;;;;;;;8.40;1.70;;;;;;;;;;5014210;28;20034;-57
2021/07/02 02:28:31;;;;;;;9.35;2.05;;;;;;;;;;5010981;28;20053;-57
2021/07/02 02:30:56;;;;;;;6.03;2.10;;;;;;;;;;5013821;28;20038;-57
2021/07/02 02:33:22;;;;;;;5.43;1.77;;;;;;;;;;5013426;28;20056;-57
2021/07/02 02:35:48;;;;;;;3.58;1.30;;;;;;;;;;5014980;28;20040;-57
2021/07/02 02:38:14;;;;;;;4.28;1.50;;;;;;;;;;5015183;28;20050;-58
2021/07/02 02:40:46;;;;;;;4.70;1.50;;;;;;;;;;5013846;28;21014;-58
2021/07/02 02:43:12;;;;;;;5.38;1.73;;;;;;;;;;5013715;28;20053;-57
2021/07/02 02:45:37;;;;;;;4.75;1.45;;;;;;;;;;5013000;28;20034;-58
2021/07/02 02:48:03;;;;;;;5.70;1.33;;;;;;;;;;5013754;28;20136;-57
2021/07/02 02:50:29;;;;;;;3.30;1.30;;;;;;;;;;5013204;28;20030;-58
2021/07/02 02:52:55;;;;;;;9.77;1.48;;;;;;;;;;5012172;28;20062;-58
2021/07/02 02:55:21;;;;;;;9.85;1.60;;;;;;;;;;5011313;28;20041;-57
2021/07/02 02:57:46;;;;;;;6.45;1.50;;;;;;;;;;5012695;28;20864;-58
2021/07/02 03:00:15;;;;;;;7.05;1.50;;;;;;;;;;5013616;28;20107;-56
2021/07/02 03:02:41;;;;;;;3.95;1.55;;;;;;;;;;5014174;28;20056;-56
2021/07/02 03:05:07;;;;;;;6.55;1.30;;;;;;;;;;5014289;28;20486;-57
2021/07/02 03:07:33;;;;;;;6.00;1.23;;;;;;;;;;5013897;28;20034;-57
2021/07/02 03:09:58;;;;;;;5.65;1.23;;;;;;;;;;5015371;28;20044;-57
2021/07/02 03:12:24;;;;;;;8.35;1.90;;;;;;;;;;5014126;28;20568;-58
2021/07/02 03:14:53;;;;;;;7.25;2.00;;;;;;;;;;5015791;28;20176;-58
2021/07/02 03:17:19;;;;;;;6.78;2.63;;;;;;;;;;5014128;28;20041;-58
2021/07/02 03:19:45;;;;;;;6.50;1.52;;;;;;;;;;5016893;28;20081;-57
2021/07/02 03:22:11;;;;;;;9.20;1.83;;;;;;;;;;5014834;28;20133;-56
2021/07/02 03:24:37;;;;;;;3.65;1.20;;;;;;;;;;5013099;28;20073;-57
2021/07/02 03:27:03;;;;;;;8.98;1.55;;;;;;;;;;5014003;28;20441;-57
2021/07/02 03:29:28;;;;;;;7.90;1.90;;;;;;;;;;5011500;28;20103;-54
2021/07/02 03:31:54;;;;;;;8.35;2.10;;;;;;;;;;5013688;28;20053;-56
2021/07/02 03:34:20;;;;;;;5.03;1.63;;;;;;;;;;5014117;28;20049;-57
2021/07/02 03:36:46;;;;;;;3.92;1.40;;;;;;;;;;5014212;28;20478;-55
2021/07/02 03:39:12;;;;;;;5.68;1.63;;;;;;;;;;5014287;28;20045;-57
2021/07/02 03:41:38;;;;;;;8.35;1.90;;;;;;;;;;5013253;28;21051;-55
2021/07/02 03:44:04;;;;;;;4.82;2.25;;;;;;;;;;5013762;28;20454;-57
2021/07/02 03:46:29;;;;;;;4.82;1.50;;;;;;;;;;5010940;28;20041;-56
2021/07/02 03:48:55;;;;;;;10.77;2.10;;;;;;;;;;5014773;28;20080;-57
2021/07/02 03:51:21;;;;;;;10.93;1.58;;;;;;;;;;5012582;28;20033;-57
2021/07/02 03:53:47;;;;;;;4.30;1.75;;;;;;;;;;5013360;28;20080;-56
2021/07/02 03:56:13;;;;;;;7.45;1.60;;;;;;;;;;5012042;28;20060;-56
2021/07/02 03:58:39;;;;;;;4.78;1.50;;;;;;;;;;5010344;28;20625;-57
2021/07/02 04:01:05;;;;;;;6.93;1.38;;;;;;;;;;5012271;28;20505;-56
2021/07/02 04:03:32;;;;;;;6.75;1.60;;;;;;;;;;5010053;28;20039;-56
2021/07/02 04:05:58;;;;;;;6.07;1.73;;;;;;;;;;5012455;28;20447;-56
2021/07/02 04:08:24;;;;;;;4.38;1.45;;;;;;;;;;5013307;28;20132;-55
2021/07/02 04:10:50;;;;;;;6.55;1.90;;;;;;;;;;5015685;28;20364;-56
2021/07/02 04:13:16;;;;;;;8.32;1.98;;;;;;;;;;5013348;28;20105;-57
2021/07/02 04:15:42;;;;;;;7.93;1.77;;;;;;;;;;5012844;28;20036;-56
2021/07/02 04:18:08;;;;;;;8.70;2.00;;;;;;;;;;5013520;28;20162;-54
2021/07/02 04:20:34;;;;;;;8.05;1.80;;;;;;;;;;5011419;28;20759;-57
2021/07/02 04:23:00;;;;;;;7.30;1.83;;;;;;;;;;5012551;28;20045;-57
2021/07/02 04:25:26;;;;;;;4.90;1.80;;;;;;;;;;5010341;28;20041;-57
2021/07/02 04:27:52;;;;;;;8.30;2.05;;;;;;;;;;5011715;28;20694;-55
2021/07/02 04:30:18;;;;;;;5.63;1.65;;;;;;;;;;5008975;28;20034;-56
2021/07/02 04:32:44;;;;;;;7.78;1.88;;;;;;;;;;5010964;28;20045;-56
2021/07/02 04:35:10;;;;;;;7.72;1.60;;;;;;;;;;5011333;28;20042;-57
2021/07/02 04:37:39;;;;;;;8.32;2.10;;;;;;;;;;5010170;28;20073;-57
2021/07/02 04:40:06;;;;;;;6.32;1.77;;;;;;;;;;5011388;28;20049;-54
2021/07/02 04:42:32;;;;;;;7.25;2.05;;;;;;;;;;5010525;28;20045;-57
2021/07/02 04:44:58;;;;;;;11.48;2.22;;;;;;;;;;5011535;28;20124;-56
2021/07/02 04:47:24;;;;;;;6.40;1.98;;;;;;;;;;5009896;28;20037;-57
2021/07/02 04:49:50;;;;;;;10.75;1.95;;;;;;;;;;5012364;28;21412;-57
2021/07/02 04:52:15;;;;;;;8.23;2.20;;;;;;;;;;5010988;28;20067;-57
2021/07/02 04:54:41;;;;;;;9.48;2.58;;;;;;;;;;5008953;28;20042;-58
2021/07/02 04:57:07;;;;;;;8.50;1.85;;;;;;;;;;5010887;28;20041;-57
2021/07/02 04:59:36;;;;;;;8.52;2.08;;;;;;;;;;5011416;28;20054;-56
2021/07/02 05:02:02;;;;;;;6.75;1.52;;;;;;;;;;5009467;28;20049;-57
2021/07/02 05:04:28;;;;;;;7.32;1.98;;;;;;;;;;5010800;28;20041;-56
2021/07/02 05:06:55;;;;;;;10.13;2.42;;;;;;;;;;5005892;28;20067;-57
2021/07/02 05:09:21;;;;;;;7.00;1.98;;;;;;;;;;5009982;28;20276;-57
2021/07/02 05:11:47;;;;;;;7.13;2.10;;;;;;;;;;4997911;28;20084;-58
2021/07/02 05:14:13;;;;;;;11.30;1.95;;;;;;;;;;5011018;28;20119;-57
2021/07/02 05:16:39;;;;;;;9.13;1.70;;;;;;;;;;5015544;28;20475;-58
2021/07/02 05:19:05;;;;;;;13.50;2.20;;;;;;;;;;5015543;28;20045;-56
2021/07/02 05:21:31;;;;;;;10.05;2.05;;;;;;;;;;5014892;28;20045;-56
2021/07/02 05:23:57;;;;;;;7.38;1.90;;;;;;;;;;5014103;28;20034;-56
2021/07/02 05:26:23;;;;;;;9.05;2.50;;;;;;;;;;5014673;28;20049;-57
2021/07/02 05:28:48;;;;;;;15.13;3.75;;;;;;;;;;5030296;28;20041;-57
2021/07/02 05:31:17;;;;;;;8.77;3.17;;;;;;;;;;5015390;28;20815;-57
2021/07/02 05:33:43;;;;;;;13.95;2.30;;;;;;;;;;5015354;28;20037;-58
2021/07/02 05:36:09;;;;;;;9.65;2.20;;;;;;;;;;5014072;28;20588;-58
2021/07/02 05:38:35;;;;;;;8.02;1.92;;;;;;;;;;5012530;28;20037;-57
2021/07/02 05:41:01;;;;;;;10.63;2.08;;;;;;;;;;5014605;28;20141;-57
2021/07/02 05:43:27;;;;;;;13.45;1.95;;;;;;;;;;5015141;28;20136;-56
2021/07/02 05:45:53;;;;;;;11.32;2.03;;;;;;;;;;5014932;28;20030;-57
2021/07/02 05:48:21;;;;;;;7.15;2.08;;;;;;;;;;5013900;28;20037;-58
2021/07/02 05:50:47;;;;;;;7.85;1.70;;;;;;;;;;5015309;28;20667;-58
2021/07/02 05:53:13;;;;;;;4.53;1.98;;;;;;;;;;5015758;28;20049;-58
2021/07/02 05:55:39;;;;;;;6.05;1.90;;;;;;;;;;5013480;28;20502;-57
2021/07/02 05:58:05;;;;;;;8.50;2.28;;;;;;;;;;5013992;28;20041;-58
2021/07/02 06:00:31;;;;;;;6.68;1.85;;;;;;;;;;5013683;28;20055;-58
2021/07/02 06:02:57;;;;;;;4.00;1.67;;;;;;;;;;5013193;28;20092;-58
2021/07/02 06:05:23;;;;;;;8.00;1.80;;;;;;;;;;5033522;28;20038;-57
2021/07/02 06:07:51;;;;;;;8.48;2.00;;;;;;;;;;5015425;28;20183;-57
2021/07/02 06:10:19;;;;;;;7.03;2.17;;;;;;;;;;5013889;28;20037;-57
2021/07/02 06:12:44;;;;;;;11.57;2.22;;;;;;;;;;5014630;28;20703;-55
2021/07/02 06:15:12;;;;;;;7.20;1.88;;;;;;;;;;5012946;28;20119;-56
2021/07/02 06:17:38;;;;;;;5.38;1.80;;;;;;;;;;5013299;28;20052;-57
2021/07/02 06:20:05;;;;;;;7.13;2.20;;;;;;;;;;5014002;28;20103;-57
2021/07/02 06:22:30;;;;;;;7.57;2.60;;;;;;;;;;5014284;28;20046;-56
2021/07/02 06:24:56;;;;;;;10.55;3.30;;;;;;;;;;5013351;28;20069;-56
2021/07/02 06:27:22;;;;;;;13.95;3.92;;;;;;;;;;5013677;28;20729;-56
2021/07/02 06:29:48;;;;;;;6.45;2.40;;;;;;;;;;5013280;28;20548;-57
2021/07/02 06:32:14;;;;;;;6.38;2.05;;;;;;;;;;5013944;28;20521;-56
2021/07/02 06:34:39;;;;;;;5.95;2.00;;;;;;;;;;5028813;28;20037;-57
2021/07/02 06:37:06;;;;;;;5.03;2.17;;;;;;;;;;5014320;28;20123;-58
2021/07/02 06:39:32;;;;;;;6.05;1.83;;;;;;;;;;5013559;28;20069;-58
2021/07/02 06:41:58;;;;;;;4.97;1.80;;;;;;;;;;5014425;28;20037;-58
2021/07/02 06:44:24;;;;;;;8.43;2.28;;;;;;;;;;5012533;28;20141;-58
2021/07/02 06:46:49;;;;;;;5.35;1.98;;;;;;;;;;5013839;28;20067;-58
2021/07/02 06:49:15;;;;;;;5.40;1.90;;;;;;;;;;5013578;28;20038;-57
2021/07/02 06:51:41;;;;;;;6.13;1.90;;;;;;;;;;5012751;28;20057;-54
2021/07/02 06:54:07;;;;;;;7.75;2.00;;;;;;;;;;5013164;28;20129;-58
2021/07/02 06:56:33;;;;;;;7.72;1.98;;;;;;;;;;5013905;28;20401;-58
2021/07/02 06:58:59;;;;;;;11.82;1.95;;;;;;;;;;5008058;28;20037;-57
2021/07/02 07:01:25;;;;;;;4.80;1.85;;;;;;;;;;5011520;28;20046;-55
2021/07/02 07:03:51;;;;;;;8.07;3.63;;;;;;;;;;5011564;28;21698;-57
2021/07/02 07:06:17;;;;;;;6.72;1.50;;;;;;;;;;5012842;28;20041;-57
2021/07/02 07:08:43;;;;;;;8.15;2.05;;;;;;;;;;5012833;28;20049;-56
2021/07/02 07:11:09;;;;;;;11.10;1.90;;;;;;;;;;5012134;28;20073;-57
2021/07/02 07:13:36;;;;;;;5.70;1.90;;;;;;;;;;5012768;28;20041;-53
2021/07/02 07:16:02;;;;;;;5.68;1.95;;;;;;;;;;5011359;28;20124;-54
2021/07/02 07:18:28;;;;;;;6.53;2.00;;;;;;;;;;5006225;28;20052;-56
2021/07/02 07:20:54;;;;;;;7.13;2.00;;;;;;;;;;5012909;28;20193;-55
2021/07/02 07:23:20;;;;;;;6.38;2.00;;;;;;;;;;5013133;28;20041;-56
2021/07/02 07:25:48;;;;;;;14.15;2.63;;;;;;;;;;5011908;28;20049;-57
2021/07/02 07:28:14;;;;;;;6.32;1.73;;;;;;;;;;5013268;28;20064;-56
2021/07/02 07:30:39;;;;;;;6.78;2.17;;;;;;;;;;5012105;28;20482;-57
2021/07/02 07:33:05;;;;;;;4.78;2.00;;;;;;;;;;5013860;28;20075;-57
2021/07/02 07:35:36;;;;;;;6.40;1.90;;;;;;;;;;5010691;28;20038;-57
2021/07/02 07:38:03;;;;;;;9.45;2.22;;;;;;;;;;5012419;28;20053;-53
2021/07/02 07:40:29;;;;;;;15.13;2.47;;;;;;;;;;5011141;28;20057;-55
2021/07/02 07:42:55;;;;;;;6.30;2.28;;;;;;;;;;5012430;28;20280;-55
2021/07/02 07:45:21;;;;;;;4.63;2.03;;;;;;;;;;5010977;28;20486;-55
2021/07/02 07:47:47;;;;;;;4.00;2.20;;;;;;;;;;5013141;28;20045;-52
2021/07/02 07:50:16;;;;;;;7.80;2.20;;;;;;;;;;5011504;28;20426;-54
2021/07/02 07:52:45;;;;;;;7.70;2.22;;;;;;;;;;5014210;28;20542;-55
2021/07/02 07:55:12;;;;;;;5.50;1.73;;;;;;;;;;5011635;28;20068;-56
2021/07/02 07:57:37;;;;;;;6.30;2.25;;;;;;;;;;5011065;28;22557;-55
2021/07/02 08:00:04;;;;;;;7.15;2.00;;;;;;;;;;5011941;28;20050;-56
2021/07/02 08:02:30;;;;;;;6.03;1.98;;;;;;;;;;5010951;28;20042;-56
2021/07/02 08:04:56;;;;;;;5.03;1.67;;;;;;;;;;5011879;28;20087;-56
2021/07/02 08:07:22;;;;;;;10.93;2.35;;;;;;;;;;5011286;28;20072;-52
2021/07/02 08:09:47;;;;;;;8.25;2.50;;;;;;;;;;5013447;28;20052;-55
2021/07/02 08:12:13;;;;;;;8.88;2.05;;;;;;;;;;5006027;28;20454;-55
2021/07/02 08:14:39;;;;;;;8.82;2.00;;;;;;;;;;5011666;28;20049;-56
2021/07/02 08:17:05;;;;;;;7.88;1.92;;;;;;;;;;5013298;28;20033;-54
2021/07/02 08:19:31;;;;;;;11.35;2.10;;;;;;;;;;5010441;28;20049;-55
2021/07/02 08:21:56;;;;;;;10.38;2.00;;;;;;;;;;5011696;28;20170;-55
2021/07/02 08:24:22;;;;;;;7.82;2.00;;;;;;;;;;5011464;28;20118;-54
2021/07/02 08:26:55;;;;;;;6.30;2.22;;;;;;;;;;5013067;28;20042;-54
2021/07/02 08:29:26;;;;;;;7.28;1.58;;;;;;;;;;5009941;28;20056;-51
2021/07/02 08:31:52;;;;;;;4.57;1.75;;;;;;;;;;5012334;28;20163;-54
2021/07/02 08:34:18;;;;;;;6.95;1.98;;;;;;;;;;5012149;28;20398;-55
2021/07/02 08:36:44;;;;;;;6.30;2.08;;;;;;;;;;5030140;28;20056;-53
2021/07/02 08:39:10;;;;;;;3.55;1.63;;;;;;;;;;5014384;28;20041;-55
2021/07/02 08:41:37;;;;;;;3.85;1.50;;;;;;;;;;5015137;28;20033;-54
2021/07/02 08:44:03;;;;;;;3.92;1.65;;;;;;;;;;5015209;28;21012;-54
2021/07/02 08:46:29;;;;;;;5.30;1.63;;;;;;;;;;5015027;28;20141;-53
2021/07/02 08:48:54;;;;;;;4.97;2.00;;;;;;;;;;5017197;28;20037;-54
2021/07/02 08:51:22;;;;;;;4.18;1.77;;;;;;;;;;5018619;28;20050;-56
2021/07/02 08:53:48;;;;;;;3.70;1.67;;;;;;;;;;5018548;28;20042;-56
2021/07/02 08:56:17;;;;;;;4.88;1.70;;;;;;;;;;5017476;28;20084;-55
2021/07/02 08:58:43;;;;;;;4.70;1.55;;;;;;;;;;5017433;28;20037;-54
2021/07/02 09:01:09;;;;;;;5.30;1.42;;;;;;;;;;5018542;28;20056;-55
2021/07/02 09:03:39;;;;;;;4.55;1.50;;;;;;;;;;5018062;28;20428;-55
2021/07/02 09:06:12;;;;;;;2.60;1.08;;;;;;;;;;5018597;28;20042;-55
2021/07/02 09:08:38;;;;;;;3.88;1.55;;;;;;;;;;5017672;28;20120;-55
2021/07/02 09:11:22;;;;;;;3.53;1.30;;;;;;;;;;5019605;28;20184;-55
2021/07/02 09:13:48;;;;;;;4.15;1.25;;;;;;;;;;5017796;28;20573;-55
2021/07/02 09:16:21;;;;;;;3.15;1.33;;;;;;;;;;5019213;28;20346;-55
2021/07/02 09:18:47;;;;;;;5.03;1.40;;;;;;;;;;5017179;28;20065;-52
2021/07/02 09:21:27;;;;;;;3.35;1.02;;;;;;;;;;5019585;28;20268;-54
2021/07/02 09:23:57;;;;;;;2.78;1.08;;;;;;;;;;5017492;28;20933;-55
2021/07/02 09:26:41;;;;;;;4.25;1.15;;;;;;;;;;5017243;28;20053;-53
2021/07/02 09:29:24;;;;;;;4.80;1.20;;;;;;;;;;5017244;28;20051;-55
2021/07/02 09:32:00;;;;;;;5.28;0.85;;;;;;;;;;5016986;28;20141;-55
2021/07/02 09:34:44;;;;;;;6.18;1.20;;;;;;;;;;5016955;28;20045;-55
2021/07/02 09:37:24;;;;;;;5.18;1.05;;;;;;;;;;5017645;28;20050;-55
2021/07/02 09:39:50;;;;;;;2.70;1.00;;;;;;;;;;5017597;28;20119;-55
2021/07/02 09:42:26;;;;;;;2.72;1.00;;;;;;;;;;5019554;28;20494;-56
2021/07/02 09:45:02;;;;;;;2.63;0.90;;;;;;;;;;5016143;28;20474;-54
2021/07/02 09:47:29;;;;;;;3.65;0.80;;;;;;;;;;5018501;28;20038;-54
2021/07/02 09:50:10;;;;;;;4.75;1.20;;;;;;;;;;5020946;28;20115;-53
2021/07/02 09:52:46;;;;;;;4.00;1.15;;;;;;;;;;5019532;28;20103;-56
2021/07/02 09:55:13;;;;;;;3.10;1.20;;;;;;;;;;5017643;28;20044;-57
2021/07/02 09:57:38;;;;;;;3.75;0.90;;;;;;;;;;5017552;28;20052;-56
2021/07/02 10:00:11;;;;;;;6.35;1.13;;;;;;;;;;5016916;28;20053;-55
2021/07/02 10:02:37;;;;;;;3.10;1.08;;;;;;;;;;5017417;28;20045;-56
2021/07/02 10:05:04;;;;;;;3.10;0.93;;;;;;;;;;5010021;28;20510;-56
2021/07/02 10:07:30;;;;;;;4.57;0.93;;;;;;;;;;5017693;28;20045;-54
2021/07/02 10:09:56;;;;;;;5.22;1.20;;;;;;;;;;5017532;28;20107;-56
2021/07/02 10:12:22;;;;;;;2.90;1.00;;;;;;;;;;5017091;28;20095;-55
2021/07/02 10:14:51;;;;;;;3.60;1.45;;;;;;;;;;5016184;28;20565;-56
2021/07/02 10:17:18;;;;;;;3.28;1.13;;;;;;;;;;5017642;28;20038;-53
2021/07/02 10:19:45;;;;;;;6.78;1.42;;;;;;;;;;5016778;28;20555;-56
2021/07/02 10:22:11;;;;;;;3.00;1.20;;;;;;;;;;5017568;28;20036;-59
2021/07/02 10:24:37;;;;;;;4.20;1.35;;;;;;;;;;5017128;28;20046;-56
2021/07/02 10:27:03;;;;;;;4.63;1.60;;;;;;;;;;5016999;28;20041;-55
2021/07/02 10:29:31;;;;;;;3.28;1.50;;;;;;;;;;5015864;28;20047;-54
2021/07/02 10:31:57;;;;;;;3.80;1.60;;;;;;;;;;5015373;28;20033;-55
2021/07/02 10:34:23;;;;;;;3.42;1.63;;;;;;;;;;5014626;28;20709;-56
2021/07/02 10:36:49;;;;;;;3.60;1.63;;;;;;;;;;5017594;28;20049;-55
2021/07/02 10:39:31;;;;;;;3.50;1.75;;;;;;;;;;5016574;28;20041;-56
2021/07/02 10:42:04;;;;;;;4.15;1.73;;;;;;;;;;5015593;28;20041;-56
2021/07/02 10:44:30;;;;;;;3.63;1.33;;;;;;;;;;5015072;28;20057;-56
2021/07/02 10:47:01;;;;;;;4.03;1.60;;;;;;;;;;5017496;28;20029;-55
2021/07/02 10:49:37;;;;;;;4.13;1.73;;;;;;;;;;5016030;28;20065;-56
2021/07/02 10:52:21;;;;;;;6.82;1.38;;;;;;;;;;5016404;28;20491;-55
2021/07/02 10:54:48;;;;;;;3.00;1.20;;;;;;;;;;5002959;28;20519;-55
2021/07/02 10:57:15;;;;;;;2.95;1.10;;;;;;;;;;4996506;28;20042;-55
2021/07/02 10:59:41;;;;;;;2.80;1.20;;;;;;;;;;4993888;28;20057;-53
2021/07/02 11:02:11;;;;;;;2.92;1.00;;;;;;;;;;5011935;28;20065;-55
2021/07/02 11:04:41;;;;;;;2.97;1.23;;;;;;;;;;4996244;28;20137;-53
2021/07/02 11:07:19;;;;;;;4.00;1.00;;;;;;;;;;4997361;28;20197;-56
2021/07/02 11:09:51;;;;;;;4.10;1.17;;;;;;;;;;5003481;28;20092;-55
2021/07/02 11:12:22;;;;;;;3.60;1.08;;;;;;;;;;4995204;28;20038;-55
2021/07/02 11:14:51;;;;;;;3.27;1.43;;;;;;;;;;4996007;28;20033;-55
2021/07/02 11:17:34;;;;;;;3.40;1.15;;;;;;;;;;4995437;28;20038;-56
2021/07/02 11:22:34;;;;;;;5.07;1.13;;;;;;;;;;4997222;28;20038;-55
2021/07/02 11:25:19;;;;;;;6.32;1.17;;;;;;;;;;4996878;28;20048;-56
2021/07/02 11:27:47;;;;;;;3.45;1.30;;;;;;;;;;5012239;28;20046;-56
2021/07/02 11:30:40;;;;;;;6.90;1.58;;;;;;;;;;4995155;28;20153;-56
2021/07/02 11:33:08;;;;;;;3.33;1.40;;;;;;;;;;5000787;28;20451;-55
2021/07/02 11:35:39;;;;;;;4.07;1.50;;;;;;;;;;4996022;28;20111;-56
2021/07/02 11:38:08;;;;;;;3.13;1.15;;;;;;;;;;4996523;28;20049;-54
2021/07/02 11:40:53;;;;;;;4.97;1.60;;;;;;;;;;4994503;28;20069;-56
2021/07/02 11:43:22;;;;;;;4.65;1.40;;;;;;;;;;4994726;28;20050;-54
2021/07/02 11:45:51;;;;;;;5.15;1.42;;;;;;;;;;4996250;28;20916;-57
2021/07/02 11:48:23;;;;;;;3.05;1.20;;;;;;;;;;5014021;28;20036;-55
2021/07/02 11:50:50;;;;;;;3.70;1.47;;;;;;;;;;4995675;28;20033;-56
2021/07/02 11:53:31;;;;;;;4.07;1.40;;;;;;;;;;4996462;28;20045;-57
2021/07/02 11:56:17;;;;;;;3.72;1.50;;;;;;;;;;4995821;28;20100;-56
2021/07/02 11:58:44;;;;;;;3.90;1.90;;;;;;;;;;5000240;28;20079;-56
2021/07/02 12:01:11;;;;;;;5.75;1.95;;;;;;;;;;5014514;28;20660;-57
2021/07/02 12:03:37;;;;;;;8.40;2.10;;;;;;;;;;4997028;28;20042;-55
2021/07/02 12:06:04;;;;;;;6.53;2.28;;;;;;;;;;4995204;28;20041;-57
2021/07/02 12:08:31;;;;;;;6.72;2.15;;;;;;;;;;4995558;28;20053;-56
2021/07/02 12:11:01;;;;;;;5.43;1.90;;;;;;;;;;4996262;28;20041;-53
2021/07/02 12:13:28;;;;;;;6.15;2.28;;;;;;;;;;4995407;28;20121;-55
2021/07/02 12:16:03;;;;;;;4.43;2.03;;;;;;;;;;4995141;28;20434;-56
2021/07/02 12:18:29;;;;;;;4.70;2.22;;;;;;;;;;4995439;28;20053;-57
2021/07/02 12:21:04;;;;;;;6.32;2.10;;;;;;;;;;4996424;28;20045;-55
2021/07/02 12:23:40;;;;;;;4.32;1.92;;;;;;;;;;4997610;28;20480;-56
2021/07/02 12:26:12;;;;;;;8.50;2.45;;;;;;;;;;5000813;28;20042;-57
2021/07/02 12:28:51;;;;;;;5.88;2.45;;;;;;;;;;4999743;28;20046;-57
2021/07/02 12:31:21;;;;;;;5.25;2.50;;;;;;;;;;5000607;28;20116;-57
2021/07/02 12:33:47;;;;;;;6.95;2.30;;;;;;;;;;5018042;28;20991;-56
2021/07/02 12:36:13;;;;;;;7.47;2.40;;;;;;;;;;5001426;28;20042;-57
2021/07/02 12:39:08;;;;;;;5.70;2.05;;;;;;;;;;5001848;28;20103;-57
2021/07/02 12:41:41;;;;;;;5.63;2.72;;;;;;;;;;5016656;28;20045;-57
2021/07/02 12:44:07;;;;;;;6.68;2.67;;;;;;;;;;5001262;28;20033;-56
2021/07/02 12:46:34;;;;;;;6.60;3.75;;;;;;;;;;4999860;28;20042;-57
2021/07/02 12:49:36;;;;;;;3.80;2.17;;;;;;;;;;5002554;28;20061;-55
2021/07/02 12:54:48;;;;;;;6.95;3.38;;;;;;;;;;5015968;28;20052;-56
2021/07/02 12:57:26;;;;;;;6.25;2.60;;;;;;;;;;5000707;28;20041;-57
2021/07/02 13:00:03;;;;;;;4.82;2.60;;;;;;;;;;5005448;28;20062;-55
2021/07/02 13:02:32;;;;;;;8.40;4.45;;;;;;;;;;4999221;28;20037;-56
2021/07/02 13:05:03;;;;;;;5.57;3.00;;;;;;;;;;4998565;28;20806;-56
2021/07/02 13:07:44;;;;;;;8.07;2.88;;;;;;;;;;4994558;28;20038;-56
2021/07/02 13:10:11;;;;;;;7.38;3.08;;;;;;;;;;4998062;28;20042;-56
2021/07/02 13:12:38;;;;;;;6.15;3.50;;;;;;;;;;4999235;28;20076;-53
2021/07/02 13:15:04;;;;;;;6.20;3.10;;;;;;;;;;4999831;28;20044;-57
2021/07/02 13:17:40;;;;;;;6.63;3.20;;;;;;;;;;4999859;28;20541;-57
2021/07/02 13:20:07;;;;;;;5.43;3.03;;;;;;;;;;5000026;28;20137;-55
2021/07/02 13:22:33;;;;;;;6.75;3.38;;;;;;;;;;4997925;28;20050;-55
2021/07/02 13:25:09;;;;;;;10.18;3.45;;;;;;;;;;4999638;28;20111;-56
2021/07/02 13:27:35;;;;;;;6.30;3.22;;;;;;;;;;4998231;28;20041;-57
2021/07/02 13:30:09;;;;;;;6.45;3.70;;;;;;;;;;4998485;28;21166;-56
2021/07/02 13:32:36;;;;;;;6.88;3.45;;;;;;;;;;5012001;28;20037;-54
2021/07/02 13:35:18;;;;;;;5.95;3.33;;;;;;;;;;4997636;28;20077;-55
2021/07/02 13:37:51;;;;;;;7.50;3.67;;;;;;;;;;4998496;28;20080;-56
2021/07/02 13:40:32;;;;;;;12.75;3.45;;;;;;;;;;4996780;28;20053;-56
2021/07/02 13:43:01;;;;;;;6.28;3.70;;;;;;;;;;4997971;28;20511;-56
2021/07/02 13:45:27;;;;;;;5.65;3.20;;;;;;;;;;4999203;28;20053;-53
2021/07/02 13:48:05;;;;;;;6.30;3.50;;;;;;;;;;5000723;28;20038;-57
2021/07/02 13:50:30;;;;;;;7.97;3.90;;;;;;;;;;5001349;28;20046;-56
2021/07/02 13:52:56;;;;;;;6.32;3.53;;;;;;;;;;4999720;28;20055;-57
2021/07/02 13:55:22;;;;;;;5.85;3.35;;;;;;;;;;4999617;28;20971;-56
2021/07/02 13:57:48;;;;;;;6.20;3.20;;;;;;;;;;5001426;28;20050;-56
2021/07/02 14:00:14;;;;;;;7.53;3.70;;;;;;;;;;5000960;28;20260;-55
2021/07/02 14:02:40;;;;;;;9.45;3.58;;;;;;;;;;5000329;28;20041;-54
2021/07/02 14:05:06;;;;;;;7.15;4.10;;;;;;;;;;4998580;28;20164;-55
2021/07/02 14:07:31;;;;;;;6.63;3.63;;;;;;;;;;4997609;28;20507;-55
2021/07/02 14:09:57;;;;;;;6.13;3.88;;;;;;;;;;4997602;28;20048;-56
2021/07/02 14:12:23;;;;;;;9.07;4.00;;;;;;;;;;4998207;28;20100;-55
2021/07/02 14:14:49;;;;;;;6.80;4.13;;;;;;;;;;4998884;28;20037;-55
2021/07/02 14:17:15;;;;;;;6.85;4.00;;;;;;;;;;4998080;28;20030;-55
2021/07/02 14:19:44;;;;;;;7.70;3.92;;;;;;;;;;4996987;28;20065;-56
2021/07/02 14:22:14;;;;;;;9.75;4.43;;;;;;;;;;4997350;28;20049;-55
2021/07/02 14:24:40;;;;;;;7.25;4.18;;;;;;;;;;4997273;28;20510;-56
2021/07/02 14:27:06;;;;;;;6.32;4.20;;;;;;;;;;4999291;28;20128;-56
2021/07/02 14:29:32;;;;;;;7.60;4.10;;;;;;;;;;4997067;28;20033;-55
2021/07/02 14:31:58;;;;;;;6.47;4.15;;;;;;;;;;4997990;28;20038;-56
2021/07/02 14:34:24;;;;;;;7.50;4.30;;;;;;;;;;4995232;28;20046;-56
2021/07/02 14:36:49;;;;;;;9.48;4.78;;;;;;;;;;4995699;28;20038;-55
2021/07/02 14:39:15;;;;;;;8.60;4.38;;;;;;;;;;5005240;28;20056;-56
2021/07/02 14:41:42;;;;;;;8.32;5.03;;;;;;;;;;5007515;28;20056;-52
2021/07/02 14:44:08;;;;;;;7.05;4.40;;;;;;;;;;5002157;28;20038;-56
2021/07/02 14:46:33;;;;;;;7.63;4.40;;;;;;;;;;4996938;28;20656;-54
2021/07/02 14:48:59;;;;;;;7.38;4.75;;;;;;;;;;4996848;28;20088;-56
2021/07/02 14:51:25;;;;;;;9.40;5.00;;;;;;;;;;5003350;28;20053;-56
2021/07/02 14:53:51;;;;;;;7.28;4.75;;;;;;;;;;4995940;28;20057;-57